Time;durP1;ratioP1;P1;durP2;ratioP2;P2;SDS_P1;SDS_P2;PMS_P1;PMS_P2;Temp;Humidity;BMP_temperature;BMP_pressure;BME280_temperature;BME280_humidity;BME280_pressure;Samples;Min_cycle;Max_cycle;Signal;HPM_P1;HPM_P2
2022/07/23 00:01:38;;;;;;;1.60;1.05;;;;;;;;;;5032909;28;20045;-84
2022/07/23 00:04:24;;;;;;;2.72;1.30;;;;;;;;;;5033326;28;20140;-84
2022/07/23 00:07:10;;;;;;;2.55;1.38;;;;;;;;;;5032938;28;20043;-84
2022/07/23 00:09:56;;;;;;;3.45;1.75;;;;;;;;;;5032817;28;20057;-84
2022/07/23 00:12:41;;;;;;;1.95;1.10;;;;;;;;;;5032021;28;20038;-84
2022/07/23 00:15:27;;;;;;;4.95;1.17;;;;;;;;;;5032547;28;20060;-84
2022/07/23 00:18:13;;;;;;;2.90;1.50;;;;;;;;;;5031730;28;20578;-84
2022/07/23 00:20:59;;;;;;;2.83;1.10;;;;;;;;;;5032525;28;20044;-84
2022/07/23 00:23:44;;;;;;;2.08;1.20;;;;;;;;;;5032782;28;20095;-84
2022/07/23 00:26:30;;;;;;;2.42;1.27;;;;;;;;;;5032755;28;20037;-84
2022/07/23 00:29:16;;;;;;;3.03;1.27;;;;;;;;;;5045915;28;20045;-84
2022/07/23 00:32:02;;;;;;;2.55;0.98;;;;;;;;;;5031944;28;20052;-83
2022/07/23 00:34:47;;;;;;;2.30;1.08;;;;;;;;;;5044986;28;20056;-84
2022/07/23 00:37:33;;;;;;;1.83;0.90;;;;;;;;;;5032024;28;20034;-84
2022/07/23 00:40:19;;;;;;;3.13;1.05;;;;;;;;;;5032263;28;20053;-84
2022/07/23 00:43:04;;;;;;;2.40;0.75;;;;;;;;;;5031381;28;20049;-84
2022/07/23 00:45:50;;;;;;;1.30;1.05;;;;;;;;;;5032365;28;20076;-83
2022/07/23 00:48:36;;;;;;;3.00;1.20;;;;;;;;;;5031508;28;20048;-83
2022/07/23 00:51:22;;;;;;;2.53;1.10;;;;;;;;;;5032404;28;20041;-84
2022/07/23 00:54:07;;;;;;;1.45;0.90;;;;;;;;;;5032201;28;20036;-84
2022/07/23 00:56:53;;;;;;;2.13;0.90;;;;;;;;;;5045704;28;20041;-83
2022/07/23 00:59:39;;;;;;;1.88;1.05;;;;;;;;;;5031933;28;20412;-83
2022/07/23 01:02:25;;;;;;;2.33;0.93;;;;;;;;;;5044463;28;20046;-84
2022/07/23 01:05:11;;;;;;;2.30;1.13;;;;;;;;;;5044735;28;20045;-84
2022/07/23 01:07:57;;;;;;;2.60;0.80;;;;;;;;;;5017690;28;20412;-83
2022/07/23 01:10:43;;;;;;;5.15;1.83;;;;;;;;;;5031191;28;20041;-84
2022/07/23 01:13:28;;;;;;;2.22;1.10;;;;;;;;;;5031775;28;20052;-82
2022/07/23 01:16:14;;;;;;;3.10;1.17;;;;;;;;;;5032039;28;20030;-83
2022/07/23 01:19:00;;;;;;;3.25;1.30;;;;;;;;;;5031537;28;20041;-84
2022/07/23 01:21:50;;;;;;;1.67;0.93;;;;;;;;;;5031766;28;20037;-84
2022/07/23 01:24:36;;;;;;;1.45;0.80;;;;;;;;;;5044394;28;20042;-84
2022/07/23 01:27:22;;;;;;;2.20;1.25;;;;;;;;;;5045136;28;20045;-84
2022/07/23 01:30:08;;;;;;;1.73;0.82;;;;;;;;;;5044021;28;20515;-84
2022/07/23 01:32:54;;;;;;;2.25;1.10;;;;;;;;;;5017049;28;20072;-82
2022/07/23 01:35:40;;;;;;;2.88;0.93;;;;;;;;;;5031745;28;20056;-84
2022/07/23 01:38:25;;;;;;;2.03;1.00;;;;;;;;;;5030445;28;20032;-84
2022/07/23 01:41:11;;;;;;;4.20;1.00;;;;;;;;;;5031322;28;20052;-84
2022/07/23 01:43:57;;;;;;;3.85;1.10;;;;;;;;;;5030752;28;20072;-84
2022/07/23 01:46:42;;;;;;;3.20;1.23;;;;;;;;;;5030921;28;20071;-84
2022/07/23 01:49:28;;;;;;;4.60;1.33;;;;;;;;;;5030742;28;20111;-84
2022/07/23 01:52:14;;;;;;;2.10;0.88;;;;;;;;;;5031086;28;20045;-84
2022/07/23 01:55:00;;;;;;;2.70;1.13;;;;;;;;;;5047404;28;20076;-84
2022/07/23 01:57:46;;;;;;;2.15;0.98;;;;;;;;;;5034647;28;20464;-84
2022/07/23 02:00:32;;;;;;;4.35;1.15;;;;;;;;;;5035055;28;20045;-84
2022/07/23 02:03:18;;;;;;;3.58;1.70;;;;;;;;;;5035052;28;20046;-84
2022/07/23 02:06:03;;;;;;;2.95;1.23;;;;;;;;;;5035274;28;20042;-84
2022/07/23 02:08:49;;;;;;;2.45;1.10;;;;;;;;;;5035126;28;20155;-84
2022/07/23 02:11:35;;;;;;;1.70;1.00;;;;;;;;;;5034947;28;20111;-84
2022/07/23 02:14:20;;;;;;;2.75;1.30;;;;;;;;;;5047198;28;20042;-84
2022/07/23 02:17:06;;;;;;;2.70;1.05;;;;;;;;;;5033803;28;20041;-84
2022/07/23 02:19:52;;;;;;;2.53;1.23;;;;;;;;;;5047666;28;20037;-84
2022/07/23 02:22:38;;;;;;;3.80;1.52;;;;;;;;;;5034345;28;20067;-84
2022/07/23 02:25:24;;;;;;;2.88;1.38;;;;;;;;;;5020409;28;20119;-84
2022/07/23 02:28:10;;;;;;;2.40;1.35;;;;;;;;;;5034525;28;20048;-84
2022/07/23 02:30:55;;;;;;;2.30;1.00;;;;;;;;;;5048926;28;20045;-84
2022/07/23 02:33:41;;;;;;;3.00;1.35;;;;;;;;;;5034146;28;20057;-84
2022/07/23 02:36:27;;;;;;;3.85;1.13;;;;;;;;;;5046125;28;20087;-84
2022/07/23 02:39:14;;;;;;;3.22;1.00;;;;;;;;;;5034567;28;20042;-84
2022/07/23 02:41:59;;;;;;;1.85;1.10;;;;;;;;;;5046487;28;20045;-84
2022/07/23 02:44:45;;;;;;;2.63;1.35;;;;;;;;;;5034676;28;20041;-84
2022/07/23 02:47:32;;;;;;;2.22;1.23;;;;;;;;;;5034618;28;20105;-84
2022/07/23 02:50:17;;;;;;;1.95;1.23;;;;;;;;;;5034221;28;20037;-84
2022/07/23 02:53:03;;;;;;;2.03;1.10;;;;;;;;;;5032583;28;20569;-84
2022/07/23 02:55:49;;;;;;;3.25;1.30;;;;;;;;;;5047852;28;20045;-84
2022/07/23 02:58:35;;;;;;;2.45;1.33;;;;;;;;;;5034282;28;20041;-84
2022/07/23 03:01:20;;;;;;;3.10;1.30;;;;;;;;;;5032933;28;20045;-84
2022/07/23 03:04:06;;;;;;;3.22;1.25;;;;;;;;;;5034467;28;20435;-84
2022/07/23 03:06:52;;;;;;;4.28;1.35;;;;;;;;;;5046996;28;20561;-84
2022/07/23 03:09:38;;;;;;;3.03;1.38;;;;;;;;;;5034069;28;20559;-84
2022/07/23 03:12:23;;;;;;;2.45;1.05;;;;;;;;;;5046096;28;20045;-84
2022/07/23 03:15:09;;;;;;;2.30;1.23;;;;;;;;;;5033790;28;20041;-84
2022/07/23 03:17:55;;;;;;;3.22;1.27;;;;;;;;;;5033322;28;20052;-84
2022/07/23 03:20:41;;;;;;;2.63;1.33;;;;;;;;;;5034070;28;20037;-84
2022/07/23 03:23:26;;;;;;;3.08;1.38;;;;;;;;;;5033648;28;20095;-84
2022/07/23 03:26:12;;;;;;;3.45;0.85;;;;;;;;;;5033961;28;20033;-84
2022/07/23 03:28:58;;;;;;;2.70;1.20;;;;;;;;;;5033887;28;20046;-84
2022/07/23 03:31:44;;;;;;;2.08;1.13;;;;;;;;;;5047921;28;20046;-83
2022/07/23 03:34:29;;;;;;;3.25;1.40;;;;;;;;;;5033670;28;20430;-84
2022/07/23 03:37:15;;;;;;;4.28;1.50;;;;;;;;;;5033558;28;20396;-84
2022/07/23 03:40:01;;;;;;;2.90;1.25;;;;;;;;;;5046301;28;20041;-85
2022/07/23 03:42:47;;;;;;;3.45;1.35;;;;;;;;;;5032756;28;20034;-84
2022/07/23 03:45:33;;;;;;;2.17;0.90;;;;;;;;;;5032657;28;20096;-84
2022/07/23 03:48:18;;;;;;;3.35;1.45;;;;;;;;;;5046146;28;20033;-84
2022/07/23 03:51:04;;;;;;;1.60;1.08;;;;;;;;;;5046219;28;20111;-84
2022/07/23 03:53:50;;;;;;;3.13;1.45;;;;;;;;;;5044760;28;20048;-84
2022/07/23 03:56:36;;;;;;;3.80;1.35;;;;;;;;;;5032938;28;20049;-84
2022/07/23 03:59:22;;;;;;;3.80;1.25;;;;;;;;;;5046899;28;20504;-84
2022/07/23 04:02:07;;;;;;;1.95;0.95;;;;;;;;;;5046323;28;20065;-84
2022/07/23 04:04:53;;;;;;;2.30;1.30;;;;;;;;;;5031832;28;20423;-84
2022/07/23 04:07:40;;;;;;;3.00;1.40;;;;;;;;;;5032983;28;20442;-84
2022/07/23 04:10:25;;;;;;;3.47;1.30;;;;;;;;;;5031822;28;20569;-84
2022/07/23 04:13:11;;;;;;;3.45;1.20;;;;;;;;;;5032980;28;20056;-84
2022/07/23 04:15:57;;;;;;;2.67;1.08;;;;;;;;;;5032709;28;20565;-84
2022/07/23 04:18:43;;;;;;;3.67;1.63;;;;;;;;;;5044849;28;20532;-85
2022/07/23 04:21:28;;;;;;;2.95;1.33;;;;;;;;;;5032418;28;20472;-84
2022/07/23 04:24:14;;;;;;;2.70;1.15;;;;;;;;;;5045532;28;20407;-84
2022/07/23 04:27:00;;;;;;;2.40;1.40;;;;;;;;;;5032711;28;20124;-84
2022/07/23 04:29:46;;;;;;;2.95;1.30;;;;;;;;;;5031513;28;20041;-84
2022/07/23 04:32:31;;;;;;;2.42;1.85;;;;;;;;;;5032471;28;20050;-84
2022/07/23 04:35:17;;;;;;;3.53;1.00;;;;;;;;;;5031978;28;20042;-84
2022/07/23 04:38:03;;;;;;;3.05;1.20;;;;;;;;;;5032464;28;20060;-84
2022/07/23 04:40:48;;;;;;;2.40;1.45;;;;;;;;;;5031452;28;20045;-84
2022/07/23 04:43:34;;;;;;;3.17;1.00;;;;;;;;;;5031470;28;20037;-84
2022/07/23 04:46:20;;;;;;;3.25;1.20;;;;;;;;;;5032217;28;20033;-84
2022/07/23 04:49:06;;;;;;;2.13;1.13;;;;;;;;;;5044975;28;20029;-84
2022/07/23 04:51:51;;;;;;;2.30;1.05;;;;;;;;;;5032374;28;20041;-84
2022/07/23 04:54:37;;;;;;;2.83;1.00;;;;;;;;;;5031653;28;20096;-83
2022/07/23 04:57:23;;;;;;;2.05;1.10;;;;;;;;;;5031831;28;20052;-84
2022/07/23 05:00:09;;;;;;;4.20;1.67;;;;;;;;;;5031883;28;20041;-84
2022/07/23 05:02:54;;;;;;;2.97;1.45;;;;;;;;;;5043925;28;20045;-83
2022/07/23 05:05:40;;;;;;;6.18;1.75;;;;;;;;;;5031539;28;20026;-83
2022/07/23 05:08:26;;;;;;;3.45;1.00;;;;;;;;;;5031314;28;20442;-84
2022/07/23 05:11:12;;;;;;;2.33;1.08;;;;;;;;;;5031833;28;20503;-84
2022/07/23 05:13:57;;;;;;;2.08;1.00;;;;;;;;;;5043078;28;20044;-83
2022/07/23 05:16:43;;;;;;;2.42;1.10;;;;;;;;;;5043465;28;20099;-83
2022/07/23 05:19:29;;;;;;;2.85;1.15;;;;;;;;;;5042525;28;20045;-84
2022/07/23 05:22:15;;;;;;;2.40;1.30;;;;;;;;;;5031638;28;20140;-82
2022/07/23 05:25:00;;;;;;;3.55;1.20;;;;;;;;;;5031874;28;20038;-83
2022/07/23 05:27:46;;;;;;;3.15;1.17;;;;;;;;;;5044130;28;20049;-83
2022/07/23 05:30:32;;;;;;;2.42;1.00;;;;;;;;;;5030844;28;20042;-83
2022/07/23 05:33:19;;;;;;;4.15;1.60;;;;;;;;;;5031377;28;20515;-83
2022/07/23 05:36:05;;;;;;;3.38;1.13;;;;;;;;;;5044448;28;20049;-83
2022/07/23 05:38:50;;;;;;;2.65;0.90;;;;;;;;;;5029047;28;20139;-83
2022/07/23 05:41:36;;;;;;;2.50;0.85;;;;;;;;;;5041564;28;20095;-83
2022/07/23 05:44:22;;;;;;;1.88;1.23;;;;;;;;;;5031169;28;20479;-83
2022/07/23 05:47:08;;;;;;;1.83;1.05;;;;;;;;;;5031311;28;20519;-83
2022/07/23 05:49:53;;;;;;;3.20;1.20;;;;;;;;;;5031238;28;20095;-83
2022/07/23 05:52:39;;;;;;;3.47;0.90;;;;;;;;;;5031571;28;20128;-83
2022/07/23 05:55:25;;;;;;;2.63;1.35;;;;;;;;;;5031431;28;20124;-83
2022/07/23 05:58:11;;;;;;;2.95;1.02;;;;;;;;;;5029730;28;20053;-83
2022/07/23 06:00:57;;;;;;;3.15;1.42;;;;;;;;;;5030369;28;20045;-83
2022/07/23 06:03:42;;;;;;;8.57;1.25;;;;;;;;;;5030611;28;20128;-83
2022/07/23 06:06:28;;;;;;;3.13;1.20;;;;;;;;;;5030992;28;20041;-83
2022/07/23 06:09:14;;;;;;;2.20;1.30;;;;;;;;;;5031144;28;20037;-82
2022/07/23 06:12:00;;;;;;;2.05;0.98;;;;;;;;;;5030703;28;20112;-83
2022/07/23 06:14:48;;;;;;;2.03;1.15;;;;;;;;;;5030719;28;20030;-83
2022/07/23 06:17:34;;;;;;;2.13;1.13;;;;;;;;;;5031516;28;20515;-83
2022/07/23 06:20:19;;;;;;;2.45;1.02;;;;;;;;;;5044496;28;20073;-83
2022/07/23 06:23:05;;;;;;;3.03;1.15;;;;;;;;;;5030979;28;20512;-82
2022/07/23 06:25:51;;;;;;;2.40;1.40;;;;;;;;;;5031298;28;20051;-82
2022/07/23 06:28:37;;;;;;;2.83;1.50;;;;;;;;;;5044124;28;20079;-83
2022/07/23 06:31:22;;;;;;;1.77;1.00;;;;;;;;;;5029932;28;20045;-82
2022/07/23 06:34:08;;;;;;;3.88;1.40;;;;;;;;;;5031085;28;20044;-82
2022/07/23 06:36:54;;;;;;;1.85;0.98;;;;;;;;;;5031029;28;20080;-82
2022/07/23 06:39:39;;;;;;;2.47;1.45;;;;;;;;;;5031084;28;20040;-82
2022/07/23 06:42:25;;;;;;;5.20;1.73;;;;;;;;;;5033127;28;20064;-82
2022/07/23 06:45:11;;;;;;;1.98;1.50;;;;;;;;;;5033522;28;20508;-83
2022/07/23 06:47:57;;;;;;;2.17;1.35;;;;;;;;;;5046482;28;20200;-82
2022/07/23 06:50:42;;;;;;;2.05;1.05;;;;;;;;;;5046990;28;20036;-82
2022/07/23 06:53:28;;;;;;;3.30;1.58;;;;;;;;;;5034137;28;20049;-82
2022/07/23 06:56:14;;;;;;;3.38;1.70;;;;;;;;;;5047407;28;20073;-82
2022/07/23 06:58:59;;;;;;;4.15;1.83;;;;;;;;;;5046001;28;20096;-82
2022/07/23 07:01:45;;;;;;;2.30;1.60;;;;;;;;;;5033110;28;20080;-82
2022/07/23 07:04:32;;;;;;;3.03;1.35;;;;;;;;;;5046259;28;20608;-81
2022/07/23 07:07:17;;;;;;;2.50;1.48;;;;;;;;;;5048254;28;20060;-82
2022/07/23 07:10:03;;;;;;;3.03;1.85;;;;;;;;;;5033937;28;20045;-82
2022/07/23 07:12:49;;;;;;;2.90;1.67;;;;;;;;;;5046573;28;20483;-82
2022/07/23 07:15:35;;;;;;;3.47;1.52;;;;;;;;;;5047683;28;20050;-81
2022/07/23 07:18:21;;;;;;;3.42;1.88;;;;;;;;;;5033316;28;20152;-82
2022/07/23 07:21:06;;;;;;;4.63;2.55;;;;;;;;;;5032615;28;20049;-82
2022/07/23 07:23:52;;;;;;;3.53;1.75;;;;;;;;;;5045336;28;20524;-82
2022/07/23 07:26:39;;;;;;;4.72;1.95;;;;;;;;;;5033663;28;20029;-82
2022/07/23 07:29:24;;;;;;;3.72;2.08;;;;;;;;;;5047216;28;20079;-81
2022/07/23 07:32:10;;;;;;;2.38;1.60;;;;;;;;;;5033182;28;20052;-81
2022/07/23 07:34:56;;;;;;;2.50;1.65;;;;;;;;;;5046151;28;20076;-82
2022/07/23 07:37:41;;;;;;;3.08;2.33;;;;;;;;;;5033870;28;20423;-82
2022/07/23 07:40:27;;;;;;;2.72;1.50;;;;;;;;;;5033359;28;20038;-82
2022/07/23 07:43:13;;;;;;;4.47;2.10;;;;;;;;;;5033253;28;20147;-82
2022/07/23 07:45:59;;;;;;;3.22;1.77;;;;;;;;;;5047323;28;20049;-82
2022/07/23 07:48:44;;;;;;;3.80;2.45;;;;;;;;;;5033366;28;20041;-81
2022/07/23 07:51:30;;;;;;;3.30;1.73;;;;;;;;;;5032248;28;20045;-81
2022/07/23 07:54:16;;;;;;;3.97;2.03;;;;;;;;;;5033377;28;20516;-82
2022/07/23 07:57:02;;;;;;;3.67;2.10;;;;;;;;;;5033098;28;20037;-81
2022/07/23 07:59:47;;;;;;;3.30;1.63;;;;;;;;;;5033024;28;20041;-82
2022/07/23 08:02:47;;;;;;;3.97;2.10;;;;;;;;;;5045973;28;20107;-82
2022/07/23 08:05:32;;;;;;;2.50;1.90;;;;;;;;;;5045813;28;20041;-82
2022/07/23 08:08:18;;;;;;;4.32;2.25;;;;;;;;;;5033260;28;20611;-82
2022/07/23 08:11:04;;;;;;;3.85;2.20;;;;;;;;;;5046099;28;20508;-82
2022/07/23 08:13:50;;;;;;;4.15;2.00;;;;;;;;;;5046582;28;20070;-81
2022/07/23 08:16:36;;;;;;;3.90;2.10;;;;;;;;;;5032193;28;20045;-82
2022/07/23 08:19:22;;;;;;;3.65;2.22;;;;;;;;;;5032619;28;20037;-81
2022/07/23 08:22:08;;;;;;;2.95;1.95;;;;;;;;;;5032769;28;20034;-82
2022/07/23 08:24:53;;;;;;;2.90;1.65;;;;;;;;;;5032895;28;20041;-81
2022/07/23 08:27:39;;;;;;;3.92;1.60;;;;;;;;;;5031320;28;20048;-81
2022/07/23 08:30:25;;;;;;;4.22;2.25;;;;;;;;;;5031139;28;20128;-80
2022/07/23 08:33:13;;;;;;;2.70;1.83;;;;;;;;;;5032194;28;20037;-80
2022/07/23 08:35:58;;;;;;;2.92;2.08;;;;;;;;;;5045154;28;20043;-81
2022/07/23 08:38:44;;;;;;;3.20;1.90;;;;;;;;;;5031823;28;20125;-81
2022/07/23 08:41:30;;;;;;;2.63;2.10;;;;;;;;;;5032017;28;20037;-81
2022/07/23 08:44:16;;;;;;;3.65;2.08;;;;;;;;;;5045805;28;20530;-82
2022/07/23 08:47:02;;;;;;;5.78;1.70;;;;;;;;;;5044887;28;20124;-82
2022/07/23 08:49:47;;;;;;;4.65;2.15;;;;;;;;;;5045791;28;20121;-82
2022/07/23 08:52:33;;;;;;;5.55;2.13;;;;;;;;;;5031093;28;20045;-81
2022/07/23 08:55:21;;;;;;;4.28;1.85;;;;;;;;;;5031847;28;20042;-82
2022/07/23 08:58:07;;;;;;;3.85;1.73;;;;;;;;;;5044750;28;20042;-81
2022/07/23 09:00:52;;;;;;;2.75;1.60;;;;;;;;;;5043127;28;20037;-82
2022/07/23 09:03:39;;;;;;;3.38;1.90;;;;;;;;;;5031423;28;20041;-82
2022/07/23 09:06:25;;;;;;;2.35;1.45;;;;;;;;;;5030725;28;20092;-81
2022/07/23 09:09:17;;;;;;;3.58;1.63;;;;;;;;;;5030659;28;20033;-81
2022/07/23 09:12:04;;;;;;;3.78;1.73;;;;;;;;;;5044146;28;20037;-82
2022/07/23 09:14:51;;;;;;;3.45;1.65;;;;;;;;;;5045546;28;20128;-81
2022/07/23 09:17:43;;;;;;;2.28;1.38;;;;;;;;;;5042832;28;20037;-81
2022/07/23 09:20:29;;;;;;;2.38;1.65;;;;;;;;;;5031484;28;20041;-82
2022/07/23 09:23:14;;;;;;;3.10;1.80;;;;;;;;;;5029852;28;20030;-82
2022/07/23 09:26:00;;;;;;;2.53;1.33;;;;;;;;;;5045278;28;20038;-82
2022/07/23 09:28:55;;;;;;;3.25;1.52;;;;;;;;;;5045075;28;20048;-81
2022/07/23 09:31:56;;;;;;;2.80;1.77;;;;;;;;;;5043611;28;20136;-82
2022/07/23 09:34:42;;;;;;;2.92;1.67;;;;;;;;;;5044406;28;20534;-82
2022/07/23 09:37:28;;;;;;;2.13;1.17;;;;;;;;;;5031299;28;20042;-82
2022/07/23 09:40:17;;;;;;;3.03;1.70;;;;;;;;;;5031199;28;20041;-82
2022/07/23 09:43:03;;;;;;;2.58;1.40;;;;;;;;;;5044832;28;20566;-82
2022/07/23 09:45:48;;;;;;;2.67;1.40;;;;;;;;;;5044548;28;20419;-81
2022/07/23 09:48:34;;;;;;;3.35;1.83;;;;;;;;;;5044735;28;20052;-82
2022/07/23 09:51:38;;;;;;;2.50;1.67;;;;;;;;;;5045160;28;20045;-82
2022/07/23 09:54:31;;;;;;;2.53;1.63;;;;;;;;;;5031191;28;20137;-82
2022/07/23 09:57:17;;;;;;;1.98;1.17;;;;;;;;;;5044230;28;20037;-82
2022/07/23 10:00:04;;;;;;;2.55;1.45;;;;;;;;;;5031044;28;20052;-81
2022/07/23 10:02:50;;;;;;;2.25;1.20;;;;;;;;;;5030634;28;20487;-81
2022/07/23 10:05:36;;;;;;;2.95;1.65;;;;;;;;;;5030275;28;20115;-82
2022/07/23 10:08:21;;;;;;;1.83;1.10;;;;;;;;;;5031097;28;20064;-82
2022/07/23 10:11:07;;;;;;;2.35;1.23;;;;;;;;;;5031200;28;20060;-82
2022/07/23 10:13:58;;;;;;;2.30;1.50;;;;;;;;;;5044963;28;20519;-80
2022/07/23 10:16:44;;;;;;;3.03;1.55;;;;;;;;;;5034509;28;20080;-81
2022/07/23 10:19:30;;;;;;;2.17;1.48;;;;;;;;;;5034890;28;20044;-80
2022/07/23 10:22:25;;;;;;;2.35;1.38;;;;;;;;;;5032601;28;20037;-81
2022/07/23 10:25:26;;;;;;;2.55;1.10;;;;;;;;;;5048161;28;20428;-81
2022/07/23 10:28:20;;;;;;;3.17;1.35;;;;;;;;;;5048982;28;20041;-81
2022/07/23 10:31:23;;;;;;;2.75;1.30;;;;;;;;;;5048618;28;20132;-80
2022/07/23 10:34:20;;;;;;;3.78;1.33;;;;;;;;;;5046984;28;20052;-80
2022/07/23 10:37:25;;;;;;;1.73;1.00;;;;;;;;;;5047928;28;20046;-81
2022/07/23 10:40:19;;;;;;;2.63;1.50;;;;;;;;;;5047645;28;20045;-81
2022/07/23 10:43:04;;;;;;;1.92;1.10;;;;;;;;;;5047333;28;20094;-81
2022/07/23 10:45:50;;;;;;;2.10;1.35;;;;;;;;;;5048029;28;20100;-81
2022/07/23 10:48:36;;;;;;;1.80;1.10;;;;;;;;;;5034361;28;20621;-80
2022/07/23 10:51:24;;;;;;;2.50;1.10;;;;;;;;;;5033886;28;20471;-80
2022/07/23 10:54:21;;;;;;;1.80;0.98;;;;;;;;;;5045998;28;20033;-81
2022/07/23 10:57:07;;;;;;;2.58;1.25;;;;;;;;;;5047107;28;20042;-81
2022/07/23 11:00:15;;;;;;;1.83;1.08;;;;;;;;;;5047404;28;20508;-81
2022/07/23 11:03:06;;;;;;;4.68;1.10;;;;;;;;;;5048043;28;20045;-81
2022/07/23 11:05:52;;;;;;;1.43;0.90;;;;;;;;;;5046756;28;20515;-80
2022/07/23 11:08:37;;;;;;;2.25;1.30;;;;;;;;;;5033559;28;20496;-80
2022/07/23 11:11:23;;;;;;;1.88;1.00;;;;;;;;;;5045544;28;20539;-81
2022/07/23 11:14:09;;;;;;;1.45;0.82;;;;;;;;;;5046704;28;20084;-81
2022/07/23 11:16:55;;;;;;;1.63;1.13;;;;;;;;;;5045505;28;20412;-80
2022/07/23 11:20:08;;;;;;;2.00;1.17;;;;;;;;;;5031325;28;20120;-81
2022/07/23 11:22:58;;;;;;;2.33;0.95;;;;;;;;;;5033180;28;20527;-80
2022/07/23 11:25:44;;;;;;;1.77;1.00;;;;;;;;;;5019806;28;20072;-81
2022/07/23 11:28:29;;;;;;;2.25;1.10;;;;;;;;;;5033189;28;20049;-80
2022/07/23 11:31:18;;;;;;;1.23;0.85;;;;;;;;;;5033777;28;20048;-81
2022/07/23 11:34:32;;;;;;;2.03;1.35;;;;;;;;;;5033353;28;20065;-81
2022/07/23 11:37:35;;;;;;;1.23;0.80;;;;;;;;;;5033392;28;20439;-81
2022/07/23 11:40:21;;;;;;;2.33;1.17;;;;;;;;;;5019285;28;20038;-81
2022/07/23 11:43:08;;;;;;;1.98;1.23;;;;;;;;;;5032831;28;20038;-81
2022/07/23 11:45:58;;;;;;;1.70;0.90;;;;;;;;;;5046346;28;20132;-80
2022/07/23 11:48:43;;;;;;;1.10;1.00;;;;;;;;;;5045713;28;20037;-81
2022/07/23 11:51:31;;;;;;;1.63;0.80;;;;;;;;;;5045170;28;20423;-81
2022/07/23 11:54:17;;;;;;;1.33;1.20;;;;;;;;;;5044079;28;20132;-80
2022/07/23 11:57:03;;;;;;;1.48;0.93;;;;;;;;;;5046628;28;20044;-81
2022/07/23 11:59:51;;;;;;;2.10;1.00;;;;;;;;;;5032435;28;20041;-81
2022/07/23 12:02:45;;;;;;;1.48;0.88;;;;;;;;;;5046431;28;20042;-81
2022/07/23 12:05:33;;;;;;;1.45;0.73;;;;;;;;;;5045242;28;20030;-81
2022/07/23 12:08:19;;;;;;;1.05;0.60;;;;;;;;;;5044957;28;20051;-80
2022/07/23 12:11:05;;;;;;;1.85;0.95;;;;;;;;;;5045295;28;20049;-81
2022/07/23 12:13:57;;;;;;;2.15;1.00;;;;;;;;;;5045434;28;20076;-82
2022/07/23 12:16:43;;;;;;;1.23;0.82;;;;;;;;;;5046592;28;20527;-81
2022/07/23 12:19:29;;;;;;;1.45;0.77;;;;;;;;;;5045953;28;20048;-81
2022/07/23 12:22:14;;;;;;;1.17;0.60;;;;;;;;;;5032753;28;20033;-81
2022/07/23 12:25:04;;;;;;;1.63;1.05;;;;;;;;;;5046703;28;20087;-81
2022/07/23 12:28:12;;;;;;;1.20;0.88;;;;;;;;;;5045129;28;20124;-81
2022/07/23 12:30:58;;;;;;;2.22;0.93;;;;;;;;;;5030392;28;20486;-81
2022/07/23 12:33:44;;;;;;;1.13;0.63;;;;;;;;;;5044496;28;20042;-81
2022/07/23 12:36:39;;;;;;;2.33;1.13;;;;;;;;;;5045800;28;20038;-81
2022/07/23 12:39:31;;;;;;;1.92;1.02;;;;;;;;;;5032475;28;20033;-81
2022/07/23 12:42:17;;;;;;;2.30;0.95;;;;;;;;;;5031429;28;20041;-81
2022/07/23 12:45:11;;;;;;;1.33;0.85;;;;;;;;;;5044940;28;20045;-81
2022/07/23 12:48:06;;;;;;;2.28;1.08;;;;;;;;;;5044754;28;20037;-81
2022/07/23 12:50:54;;;;;;;1.73;1.10;;;;;;;;;;5031726;28;20049;-81
2022/07/23 12:53:48;;;;;;;2.55;0.98;;;;;;;;;;5045680;28;20034;-81
2022/07/23 12:56:35;;;;;;;2.20;0.70;;;;;;;;;;5045481;28;20044;-81
2022/07/23 12:59:21;;;;;;;1.98;1.00;;;;;;;;;;5044806;28;20033;-81
2022/07/23 13:02:08;;;;;;;2.05;0.93;;;;;;;;;;5030724;28;20047;-81
2022/07/23 13:04:56;;;;;;;3.08;0.90;;;;;;;;;;5044661;28;20049;-81
2022/07/23 13:07:42;;;;;;;1.90;1.05;;;;;;;;;;5032164;28;20488;-81
2022/07/23 13:10:28;;;;;;;1.98;1.20;;;;;;;;;;5030654;28;20511;-81
2022/07/23 13:13:14;;;;;;;2.08;0.98;;;;;;;;;;5032167;28;20512;-81
2022/07/23 13:16:01;;;;;;;1.60;0.75;;;;;;;;;;5030597;28;20104;-81
2022/07/23 13:18:47;;;;;;;1.77;1.20;;;;;;;;;;5031190;28;20554;-81
2022/07/23 13:21:33;;;;;;;1.60;0.73;;;;;;;;;;5030814;28;20037;-81
2022/07/23 13:24:18;;;;;;;1.48;0.93;;;;;;;;;;5044546;28;20098;-81
2022/07/23 13:27:06;;;;;;;1.80;0.90;;;;;;;;;;5031338;28;20076;-81
2022/07/23 13:29:51;;;;;;;2.13;0.80;;;;;;;;;;5044818;28;20095;-82
2022/07/23 13:32:37;;;;;;;1.33;0.80;;;;;;;;;;5031967;28;20053;-81
2022/07/23 13:35:23;;;;;;;2.40;1.13;;;;;;;;;;5031630;28;20519;-81
2022/07/23 13:38:08;;;;;;;1.70;0.98;;;;;;;;;;5045546;28;20100;-81
2022/07/23 13:40:54;;;;;;;1.30;0.90;;;;;;;;;;5031377;28;20055;-81
2022/07/23 13:43:40;;;;;;;1.70;0.75;;;;;;;;;;5030582;28;20511;-81
2022/07/23 13:46:26;;;;;;;1.48;0.80;;;;;;;;;;5031280;28;20099;-81
2022/07/23 13:49:11;;;;;;;1.73;0.80;;;;;;;;;;5045330;28;20076;-81
2022/07/23 13:51:57;;;;;;;2.28;1.10;;;;;;;;;;5035284;28;20092;-81
2022/07/23 13:54:43;;;;;;;1.45;0.70;;;;;;;;;;5034613;28;20499;-81
2022/07/23 13:57:30;;;;;;;3.92;1.85;;;;;;;;;;5034558;28;20111;-81
2022/07/23 14:00:16;;;;;;;1.38;1.00;;;;;;;;;;5033858;28;20037;-81
2022/07/23 14:03:01;;;;;;;2.28;1.08;;;;;;;;;;5049187;28;20033;-81
2022/07/23 14:05:47;;;;;;;1.52;0.98;;;;;;;;;;5035124;28;20099;-81
2022/07/23 14:08:33;;;;;;;1.65;0.90;;;;;;;;;;5048988;28;20435;-81
2022/07/23 14:11:19;;;;;;;2.13;1.20;;;;;;;;;;5035158;28;20436;-81
2022/07/23 14:14:05;;;;;;;1.88;0.90;;;;;;;;;;5047858;28;20107;-81
2022/07/23 14:16:50;;;;;;;1.50;1.00;;;;;;;;;;5034719;28;20435;-81
2022/07/23 14:19:36;;;;;;;1.33;0.85;;;;;;;;;;5047992;28;20404;-81
2022/07/23 14:22:22;;;;;;;2.47;1.33;;;;;;;;;;5048278;28;20034;-81
2022/07/23 14:25:08;;;;;;;1.77;0.80;;;;;;;;;;5034398;28;20091;-81
2022/07/23 14:27:54;;;;;;;2.05;0.90;;;;;;;;;;5048072;28;20048;-81
2022/07/23 14:30:40;;;;;;;1.90;1.02;;;;;;;;;;5048842;28;20053;-81
2022/07/23 14:33:26;;;;;;;1.85;1.17;;;;;;;;;;5034466;28;20099;-81
2022/07/23 14:36:11;;;;;;;1.40;0.90;;;;;;;;;;5048190;28;20514;-81
2022/07/23 14:38:57;;;;;;;1.60;0.95;;;;;;;;;;5045843;28;20589;-81
2022/07/23 14:41:43;;;;;;;1.30;0.55;;;;;;;;;;5047984;28;20041;-81
2022/07/23 14:44:29;;;;;;;1.75;0.98;;;;;;;;;;5033473;28;20042;-81
2022/07/23 14:47:14;;;;;;;1.13;0.80;;;;;;;;;;5034613;28;20411;-81
2022/07/23 14:50:00;;;;;;;1.70;1.02;;;;;;;;;;5034028;28;20046;-81
2022/07/23 14:52:46;;;;;;;2.20;0.80;;;;;;;;;;5034860;28;20029;-80
2022/07/23 14:55:32;;;;;;;1.90;1.33;;;;;;;;;;5034112;28;20092;-81
2022/07/23 14:58:17;;;;;;;1.77;1.02;;;;;;;;;;5034178;28;20045;-81
2022/07/23 15:01:03;;;;;;;2.20;1.20;;;;;;;;;;5033155;28;20622;-80
2022/07/23 15:03:49;;;;;;;2.15;0.93;;;;;;;;;;5032487;28;20045;-81
2022/07/23 15:06:35;;;;;;;2.33;1.38;;;;;;;;;;5031962;28;20049;-81
2022/07/23 15:09:21;;;;;;;1.35;0.93;;;;;;;;;;5034041;28;20416;-80
2022/07/23 15:12:06;;;;;;;1.70;0.93;;;;;;;;;;5033221;28;20478;-81
2022/07/23 15:14:52;;;;;;;2.20;1.23;;;;;;;;;;5033725;28;20091;-80
2022/07/23 15:17:38;;;;;;;1.70;0.95;;;;;;;;;;5033528;28;20454;-81
2022/07/23 15:20:24;;;;;;;1.55;1.05;;;;;;;;;;5046980;28;20052;-80
2022/07/23 15:23:10;;;;;;;1.73;1.23;;;;;;;;;;5033849;28;20504;-81
2022/07/23 15:25:56;;;;;;;2.05;1.20;;;;;;;;;;5047262;28;20389;-81
2022/07/23 15:28:42;;;;;;;1.90;1.17;;;;;;;;;;5034219;28;20040;-81
2022/07/23 15:31:27;;;;;;;1.30;0.85;;;;;;;;;;5033582;28;20419;-81
2022/07/23 15:34:13;;;;;;;1.50;1.20;;;;;;;;;;5046678;28;20045;-81
2022/07/23 15:37:02;;;;;;;1.23;0.82;;;;;;;;;;5045307;28;20429;-81
2022/07/23 15:39:48;;;;;;;1.92;0.90;;;;;;;;;;5047544;28;20048;-81
2022/07/23 15:42:33;;;;;;;2.05;1.38;;;;;;;;;;5045994;28;20029;-81
2022/07/23 15:45:19;;;;;;;2.50;1.25;;;;;;;;;;5032092;28;20538;-81
2022/07/23 15:48:05;;;;;;;2.80;1.10;;;;;;;;;;5033272;28;20068;-81
2022/07/23 15:50:51;;;;;;;2.10;1.40;;;;;;;;;;5032867;28;20534;-80
2022/07/23 15:53:36;;;;;;;2.15;1.25;;;;;;;;;;5045584;28;20033;-81
2022/07/23 15:56:22;;;;;;;3.33;1.20;;;;;;;;;;5045166;28;20034;-81
2022/07/23 15:59:08;;;;;;;2.13;1.00;;;;;;;;;;5033010;28;20466;-81
2022/07/23 16:01:54;;;;;;;1.55;1.00;;;;;;;;;;5033115;28;20047;-81
2022/07/23 16:04:39;;;;;;;1.85;1.13;;;;;;;;;;5046355;28;20052;-81
2022/07/23 16:07:25;;;;;;;2.33;1.10;;;;;;;;;;5045758;28;20518;-81
2022/07/23 16:10:12;;;;;;;2.63;1.30;;;;;;;;;;5043696;28;20041;-81
2022/07/23 16:12:58;;;;;;;2.40;1.08;;;;;;;;;;5046624;28;20486;-81
2022/07/23 16:15:43;;;;;;;2.38;1.10;;;;;;;;;;5032395;28;20423;-81
2022/07/23 16:18:30;;;;;;;1.67;1.00;;;;;;;;;;5031776;28;20052;-81
2022/07/23 16:21:17;;;;;;;2.08;1.27;;;;;;;;;;5045818;28;20045;-81
2022/07/23 16:24:03;;;;;;;1.60;1.13;;;;;;;;;;5032993;28;20076;-81
2022/07/23 16:26:49;;;;;;;2.00;1.15;;;;;;;;;;5044477;28;20518;-81
2022/07/23 16:29:34;;;;;;;2.28;1.17;;;;;;;;;;5031880;28;20051;-81
2022/07/23 16:32:20;;;;;;;2.15;1.08;;;;;;;;;;5030946;28;20041;-81
2022/07/23 16:35:06;;;;;;;1.70;1.15;;;;;;;;;;5044425;28;20356;-80
2022/07/23 16:37:52;;;;;;;1.88;1.10;;;;;;;;;;5032632;28;20482;-81
2022/07/23 16:40:37;;;;;;;2.22;1.52;;;;;;;;;;5030588;28;20143;-81